Terminal Aerodrome Forecast
Issued by NWS

Home | Current Version | Previous Version | Graphics & Text | Print | Product List | Glossary On
Versions: 1 2 3 4 5 6 7 8 9 10 11 12 13 14 15 16 17
000
FTUS43 KMPX 190500
TAFRWF
TAF
KRWF 190526Z 1906/2006 17008KT P6SM BKN150
     FM191300 21012G17KT P6SM SCT150
     FM191900 26011KT P6SM FEW150
     FM200100 30007KT P6SM SKC=

USA.gov is the U.S. government's official web portal to all federal, state and local government web resources and services.